Time;durP1;ratioP1;P1;durP2;ratioP2;P2;SDS_P1;SDS_P2;PMS_P1;PMS_P2;Temp;Humidity;BMP_temperature;BMP_pressure;BME280_temperature;BME280_humidity;BME280_pressure;Samples;Min_cycle;Max_cycle;Signal;HPM_P1;HPM_P2
2021/01/22 00:01:59;;;;;;;4.13;2.22;;;3.80;99.90;;;;;;5086849;28;20020;-68
2021/01/22 00:04:26;;;;;;;4.65;2.33;;;3.80;99.90;;;;;;5071726;28;20024;-69
2021/01/22 00:06:52;;;;;;;2.13;1.60;;;3.90;99.90;;;;;;5066971;28;20016;-70
2021/01/22 00:09:18;;;;;;;3.80;1.95;;;3.90;99.90;;;;;;5085968;28;20469;-68
2021/01/22 00:11:44;;;;;;;4.75;2.03;;;3.90;99.90;;;;;;5082186;28;20082;-68
2021/01/22 00:14:09;;;;;;;5.45;3.10;;;4.00;99.90;;;;;;5088687;28;20052;-68
2021/01/22 00:16:35;;;;;;;5.00;3.17;;;4.00;99.90;;;;;;5086085;28;20036;-68
2021/01/22 00:19:02;;;;;;;7.72;4.03;;;4.10;99.90;;;;;;5083443;28;20414;-71
2021/01/22 00:21:29;;;;;;;8.20;3.88;;;4.20;99.90;;;;;;5084984;28;20016;-71
2021/01/22 00:23:55;;;;;;;10.13;4.80;;;4.30;99.90;;;;;;5068344;28;20077;-69
2021/01/22 00:26:21;;;;;;;8.55;4.60;;;4.30;99.90;;;;;;5087019;28;20032;-69
2021/01/22 00:28:46;;;;;;;8.35;4.55;;;4.30;99.90;;;;;;5089296;28;20031;-68
2021/01/22 00:31:12;;;;;;;7.68;5.18;;;4.30;99.90;;;;;;5088953;28;20039;-68
2021/01/22 00:33:37;;;;;;;9.35;5.40;;;4.30;99.90;;;;;;5087467;28;20491;-67
2021/01/22 00:36:06;;;;;;;9.82;4.20;;;4.40;99.90;;;;;;5071067;28;20032;-67
2021/01/22 00:38:33;;;;;;;4.60;2.78;;;4.40;99.90;;;;;;5070302;28;20056;-68
2021/01/22 00:40:58;;;;;;;5.38;2.65;;;4.40;99.90;;;;;;5069439;28;20538;-68
2021/01/22 00:43:24;;;;;;;1.33;1.20;;;4.40;99.90;;;;;;5089967;28;20028;-69
2021/01/22 00:45:50;;;;;;;1.27;0.90;;;4.30;99.90;;;;;;5085781;28;20040;-68
2021/01/22 00:48:15;;;;;;;1.05;0.85;;;4.30;99.90;;;;;;5077250;28;20032;-69
2021/01/22 00:50:41;;;;;;;2.63;0.50;;;4.30;99.90;;;;;;5089554;28;20024;-69
2021/01/22 00:53:06;;;;;;;4.43;0.60;;;4.30;99.90;;;;;;5089559;28;20040;-70
2021/01/22 00:55:32;;;;;;;3.28;0.43;;;4.30;99.90;;;;;;5069444;28;20086;-69
2021/01/22 00:57:59;;;;;;;1.85;0.80;;;4.30;99.90;;;;;;5084287;28;20039;-70
2021/01/22 01:00:24;;;;;;;0.90;0.32;;;4.30;99.90;;;;;;5066027;28;20071;-69
2021/01/22 01:02:51;;;;;;;0.25;0.25;;;4.30;99.90;;;;;;5073498;28;20512;-69
2021/01/22 01:05:17;;;;;;;2.15;0.30;;;4.40;99.90;;;;;;5062915;28;20028;-69
2021/01/22 01:07:44;;;;;;;0.57;0.32;;;4.50;99.90;;;;;;5084068;28;20169;-69
2021/01/22 01:10:11;;;;;;;0.95;0.30;;;4.40;99.90;;;;;;5088469;28;20082;-68
2021/01/22 01:12:37;;;;;;;0.80;0.28;;;4.40;99.90;;;;;;5082676;28;20131;-70
2021/01/22 01:15:05;;;;;;;3.40;0.75;;;4.40;99.90;;;;;;5077699;28;20111;-69
2021/01/22 01:17:31;;;;;;;1.55;0.40;;;4.40;99.90;;;;;;5079643;28;20443;-69
2021/01/22 01:19:57;;;;;;;3.00;0.60;;;4.40;99.90;;;;;;5068661;28;20506;-69
2021/01/22 01:22:22;;;;;;;1.42;0.40;;;4.40;99.90;;;;;;5068923;28;20039;-68
2021/01/22 01:24:48;;;;;;;2.38;0.50;;;4.40;99.90;;;;;;5087846;28;20024;-69
2021/01/22 01:27:13;;;;;;;0.20;0.20;;;4.30;99.90;;;;;;5082371;28;20064;-70
2021/01/22 01:29:39;;;;;;;2.35;0.32;;;4.40;99.90;;;;;;5051145;28;20032;-69
2021/01/22 01:32:05;;;;;;;1.00;0.30;;;4.40;99.90;;;;;;5066811;28;20514;-69
2021/01/22 01:34:31;;;;;;;2.22;0.38;;;4.40;99.90;;;;;;5087972;28;20031;-69
2021/01/22 01:36:56;;;;;;;5.07;0.45;;;4.40;99.90;;;;;;5070427;28;20028;-69
2021/01/22 01:39:22;;;;;;;5.38;0.50;;;4.40;99.90;;;;;;5088740;28;20366;-71
2021/01/22 01:41:47;;;;;;;1.30;0.43;;;4.40;99.90;;;;;;5070487;28;20019;-69
2021/01/22 01:44:13;;;;;;;3.28;0.20;;;4.40;99.90;;;;;;5088052;28;20031;-70
2021/01/22 01:46:38;;;;;;;3.22;0.30;;;4.40;99.90;;;;;;5088219;28;20020;-69
2021/01/22 01:49:04;;;;;;;2.25;0.63;;;4.40;99.90;;;;;;5087229;28;20020;-70
2021/01/22 01:51:30;;;;;;;4.53;0.50;;;4.40;99.90;;;;;;5088188;28;20047;-70
2021/01/22 01:53:55;;;;;;;3.20;0.50;;;4.50;99.90;;;;;;5087645;28;20027;-70
2021/01/22 01:56:22;;;;;;;0.40;0.30;;;4.50;99.90;;;;;;5088509;28;20035;-70
2021/01/22 01:58:48;;;;;;;2.25;0.30;;;4.50;99.90;;;;;;5088277;28;20043;-71
2021/01/22 02:01:17;;;;;;;3.22;0.50;;;4.50;99.90;;;;;;5087685;28;20638;-70
2021/01/22 02:03:43;;;;;;;0.32;0.20;;;4.40;99.90;;;;;;5087845;28;20388;-71
2021/01/22 02:06:08;;;;;;;2.97;0.50;;;4.40;99.90;;;;;;5086928;28;20027;-69
2021/01/22 02:08:34;;;;;;;4.18;0.93;;;4.40;99.90;;;;;;5086434;28;20569;-69
2021/01/22 02:11:02;;;;;;;3.75;0.35;;;4.40;99.90;;;;;;5086461;28;20019;-69
2021/01/22 02:13:30;;;;;;;2.08;0.30;;;4.40;99.90;;;;;;5083662;28;20421;-72
2021/01/22 02:15:56;;;;;;;1.65;0.32;;;4.40;99.90;;;;;;5068621;28;20027;-70
2021/01/22 02:18:24;;;;;;;2.38;0.30;;;4.40;99.90;;;;;;5087187;28;20073;-70
2021/01/22 02:20:59;;;;;;;2.13;0.40;;;4.50;99.90;;;;;;5086635;28;20103;-69
2021/01/22 02:23:27;;;;;;;4.85;0.38;;;4.50;99.90;;;;;;5083297;28;20051;-69
2021/01/22 02:26:10;;;;;;;0.63;0.25;;;4.50;99.90;;;;;;5087704;28;20020;-69
2021/01/22 02:28:38;;;;;;;1.17;0.50;;;4.50;99.90;;;;;;5087533;28;20127;-70
2021/01/22 02:31:04;;;;;;;4.22;0.40;;;4.60;99.90;;;;;;5087852;28;20047;-70
2021/01/22 02:33:32;;;;;;;1.30;0.38;;;4.60;99.90;;;;;;5086671;28;20028;-70
2021/01/22 02:35:58;;;;;;;1.00;0.20;;;4.60;99.90;;;;;;5068896;28;20066;-70
2021/01/22 02:38:25;;;;;;;0.60;0.35;;;4.60;99.90;;;;;;5089392;28;20032;-70
2021/01/22 02:40:56;;;;;;;5.93;0.43;;;4.60;99.90;;;;;;5077199;28;20488;-73
2021/01/22 02:43:22;;;;;;;0.93;0.40;;;4.60;99.90;;;;;;5091880;28;20476;-71
2021/01/22 02:45:51;;;;;;;2.53;0.57;;;4.60;99.90;;;;;;5056565;28;20039;-70
2021/01/22 02:48:17;;;;;;;1.75;0.40;;;4.50;99.90;;;;;;5077903;28;20016;-69
2021/01/22 02:50:43;;;;;;;3.78;0.57;;;4.50;99.90;;;;;;5055773;28;20408;-70
2021/01/22 02:53:08;;;;;;;3.08;0.57;;;4.50;99.90;;;;;;5086728;28;20021;-72
2021/01/22 02:55:35;;;;;;;6.07;0.65;;;4.50;99.90;;;;;;5073391;28;20028;-71
2021/01/22 02:58:25;;;;;;;3.03;0.43;;;4.50;99.90;;;;;;5091491;28;20043;-71
2021/01/22 03:00:56;;;;;;;9.15;0.98;;;4.50;99.90;;;;;;5090066;28;20107;-70
2021/01/22 03:03:30;;;;;;;3.75;1.30;;;4.50;99.90;;;;;;5092186;28;20369;-71
2021/01/22 03:05:57;;;;;;;4.50;1.35;;;4.40;99.90;;;;;;5092909;28;20081;-71
2021/01/22 03:08:25;;;;;;;3.22;1.90;;;4.40;99.90;;;;;;5091834;28;20099;-71
2021/01/22 03:10:53;;;;;;;8.60;1.98;;;4.40;99.90;;;;;;5091277;28;20484;-70
2021/01/22 03:13:21;;;;;;;4.97;2.10;;;4.40;99.90;;;;;;5090355;28;20047;-71
2021/01/22 03:15:47;;;;;;;8.00;2.65;;;4.40;99.90;;;;;;5087279;28;20504;-70
2021/01/22 03:18:14;;;;;;;7.03;1.73;;;4.40;99.90;;;;;;5086834;28;20032;-71
2021/01/22 03:20:44;;;;;;;4.75;1.50;;;4.30;99.90;;;;;;5090222;28;20093;-70
2021/01/22 03:23:12;;;;;;;5.97;1.75;;;4.30;99.90;;;;;;5076805;28;20508;-71
2021/01/22 03:25:37;;;;;;;8.73;1.77;;;4.30;99.90;;;;;;5091104;28;20377;-72
2021/01/22 03:28:07;;;;;;;5.70;1.08;;;4.30;99.90;;;;;;5089302;28;20566;-71
2021/01/22 03:30:33;;;;;;;6.78;1.30;;;4.40;99.90;;;;;;5057954;28;20424;-70
2021/01/22 03:32:59;;;;;;;9.32;1.20;;;4.40;99.90;;;;;;5085702;28;20044;-73
2021/01/22 03:35:25;;;;;;;6.03;1.23;;;4.50;99.90;;;;;;5071777;28;20028;-71
2021/01/22 03:37:51;;;;;;;5.50;1.55;;;4.50;99.90;;;;;;5090448;28;20028;-72
2021/01/22 03:40:17;;;;;;;7.07;1.35;;;4.50;99.90;;;;;;5091751;28;20050;-72
2021/01/22 03:42:46;;;;;;;4.43;1.83;;;4.50;99.90;;;;;;5089249;28;20103;-71
2021/01/22 03:45:13;;;;;;;9.45;2.05;;;4.50;99.90;;;;;;5095866;28;20097;-71
2021/01/22 03:47:38;;;;;;;15.15;2.97;;;4.50;99.90;;;;;;5096763;28;20035;-73
2021/01/22 03:50:04;;;;;;;7.32;2.65;;;4.50;99.90;;;;;;5085323;28;20035;-73
2021/01/22 03:52:30;;;;;;;10.45;4.25;;;4.50;99.90;;;;;;5090681;28;20036;-71
2021/01/22 03:54:55;;;;;;;13.73;4.20;;;4.40;99.90;;;;;;5088138;28;20350;-73
2021/01/22 03:57:21;;;;;;;6.75;4.40;;;4.40;99.90;;;;;;5090809;28;20032;-71
2021/01/22 03:59:46;;;;;;;10.35;5.72;;;4.40;99.90;;;;;;5084519;28;20056;-72
2021/01/22 04:02:12;;;;;;;12.13;6.43;;;4.40;99.90;;;;;;5084009;28;20031;-73
2021/01/22 04:04:38;;;;;;;14.80;6.25;;;4.40;99.90;;;;;;5089033;28;20119;-72
2021/01/22 04:07:04;;;;;;;15.60;7.65;;;4.30;99.90;;;;;;5071743;28;20032;-72
2021/01/22 04:09:30;;;;;;;15.68;7.95;;;4.30;99.90;;;;;;5089552;28;20032;-72
2021/01/22 04:11:57;;;;;;;18.40;8.02;;;4.30;99.90;;;;;;5088037;28;20044;-72
2021/01/22 04:14:23;;;;;;;20.95;8.75;;;4.30;99.90;;;;;;5089648;28;20036;-73
2021/01/22 04:16:49;;;;;;;17.95;8.05;;;4.30;99.90;;;;;;5059630;28;20101;-71
2021/01/22 04:19:14;;;;;;;23.02;9.02;;;4.30;99.90;;;;;;5090410;28;20103;-72
2021/01/22 04:21:40;;;;;;;20.27;10.43;;;4.30;99.90;;;;;;5090179;28;20017;-73
2021/01/22 04:24:06;;;;;;;23.85;10.35;;;4.20;99.90;;;;;;5089462;28;20549;-72
2021/01/22 04:26:32;;;;;;;21.52;10.80;;;4.20;99.90;;;;;;5071674;28;20385;-71
2021/01/22 04:28:57;;;;;;;25.60;11.82;;;4.30;99.90;;;;;;5069032;28;20031;-72
2021/01/22 04:31:23;;;;;;;21.73;12.32;;;4.20;99.90;;;;;;5083871;28;20036;-71
2021/01/22 04:33:50;;;;;;;20.48;11.52;;;4.20;99.90;;;;;;5088528;28;20366;-73
2021/01/22 04:36:16;;;;;;;22.88;11.60;;;4.20;99.90;;;;;;5080212;28;20485;-73
2021/01/22 04:38:42;;;;;;;22.60;12.52;;;4.20;99.90;;;;;;5089594;28;20024;-73
2021/01/22 04:41:07;;;;;;;21.60;12.18;;;4.10;99.90;;;;;;5076713;28;20020;-72
2021/01/22 04:43:33;;;;;;;22.63;11.43;;;4.10;99.90;;;;;;5084821;28;20060;-73
2021/01/22 04:46:01;;;;;;;25.27;12.02;;;4.10;99.90;;;;;;5087551;28;20028;-72
2021/01/22 04:48:28;;;;;;;21.88;12.30;;;4.10;99.90;;;;;;5074748;28;20031;-73
2021/01/22 04:50:58;;;;;;;25.75;12.38;;;4.10;99.90;;;;;;5075112;28;20457;-73
2021/01/22 04:53:27;;;;;;;30.45;13.40;;;4.10;99.90;;;;;;5069024;28;20028;-71
2021/01/22 04:55:54;;;;;;;25.55;14.57;;;4.10;99.90;;;;;;5088889;28;20066;-73
2021/01/22 04:58:23;;;;;;;26.08;12.77;;;4.00;99.90;;;;;;5077571;28;20581;-72
2021/01/22 05:00:49;;;;;;;28.08;14.15;;;4.00;99.90;;;;;;5084793;28;20056;-74
2021/01/22 05:03:17;;;;;;;25.10;12.57;;;4.00;99.90;;;;;;5086057;28;20385;-72
2021/01/22 05:05:43;;;;;;;28.08;13.13;;;4.10;99.90;;;;;;5089124;28;20035;-72
2021/01/22 05:08:10;;;;;;;27.75;12.70;;;4.10;99.90;;;;;;5090700;28;20047;-72
2021/01/22 05:10:59;;;;;;;27.73;13.02;;;4.10;99.90;;;;;;5088380;28;20028;-73
2021/01/22 05:13:25;;;;;;;31.60;12.93;;;4.10;99.90;;;;;;5087413;28;20059;-71
2021/01/22 05:16:14;;;;;;;31.42;13.25;;;4.10;99.90;;;;;;5089741;28;20027;-71
2021/01/22 05:18:42;;;;;;;29.38;12.75;;;4.10;99.90;;;;;;5062629;28;20033;-72
2021/01/22 05:21:12;;;;;;;24.48;12.23;;;4.10;99.90;;;;;;5088726;28;20032;-72
2021/01/22 05:23:39;;;;;;;24.15;13.07;;;4.10;99.90;;;;;;5089544;28;20111;-72
2021/01/22 05:26:07;;;;;;;24.60;12.65;;;4.10;99.90;;;;;;5086005;28;20024;-72
2021/01/22 05:28:44;;;;;;;28.30;12.00;;;4.10;99.90;;;;;;5088563;28;20052;-73
2021/01/22 05:31:11;;;;;;;20.58;11.07;;;4.00;99.90;;;;;;5089398;28;20019;-72
2021/01/22 05:33:38;;;;;;;18.95;11.20;;;4.10;99.90;;;;;;5090215;28;20032;-73
2021/01/22 05:36:23;;;;;;;24.35;11.38;;;4.00;99.90;;;;;;5088949;28;20016;-72
2021/01/22 05:38:49;;;;;;;24.05;12.45;;;4.00;99.90;;;;;;5084013;28;20051;-73
2021/01/22 05:41:15;;;;;;;23.42;12.63;;;4.00;99.90;;;;;;5088807;28;20463;-72
2021/01/22 05:43:41;;;;;;;18.77;11.45;;;4.00;99.90;;;;;;5069061;28;20131;-73
2021/01/22 05:46:18;;;;;;;22.50;12.32;;;4.00;99.90;;;;;;5085540;28;20021;-74
2021/01/22 05:48:43;;;;;;;24.10;11.52;;;4.00;99.90;;;;;;5065398;28;20142;-71
2021/01/22 05:51:11;;;;;;;23.85;10.43;;;3.90;99.90;;;;;;5083076;28;20046;-70
2021/01/22 05:53:47;;;;;;;26.52;11.73;;;4.00;99.90;;;;;;5091343;28;20070;-71
2021/01/22 05:56:15;;;;;;;23.67;11.60;;;3.90;99.90;;;;;;5085814;28;20020;-72
2021/01/22 05:58:43;;;;;;;22.50;10.90;;;3.90;99.90;;;;;;5068459;28;20103;-71
2021/01/22 06:01:17;;;;;;;23.60;10.48;;;4.00;99.90;;;;;;5091400;28;20035;-72
2021/01/22 06:03:50;;;;;;;21.48;10.00;;;3.90;99.90;;;;;;5087058;28;20170;-70
2021/01/22 06:06:17;;;;;;;19.30;10.30;;;4.00;99.90;;;;;;5070386;28;20111;-70
2021/01/22 06:08:57;;;;;;;23.70;11.77;;;4.00;99.90;;;;;;5087022;28;20047;-71
2021/01/22 06:11:30;;;;;;;25.33;10.90;;;3.90;99.90;;;;;;5085617;28;20060;-70
2021/01/22 06:13:57;;;;;;;25.27;9.95;;;3.90;99.90;;;;;;5086600;28;20044;-70
2021/01/22 06:16:28;;;;;;;15.63;8.02;;;3.90;99.90;;;;;;5090455;28;20039;-70
2021/01/22 06:19:00;;;;;;;17.33;8.40;;;3.90;99.90;;;;;;5087035;28;21467;-69
2021/01/22 06:21:54;;;;;;;20.60;9.02;;;3.90;99.90;;;;;;5088094;28;20024;-71
2021/01/22 06:24:20;;;;;;;17.80;8.70;;;3.90;99.90;;;;;;5081187;28;20039;-72
2021/01/22 06:26:47;;;;;;;17.70;8.30;;;3.90;99.90;;;;;;5082375;28;20322;-70
2021/01/22 06:29:13;;;;;;;17.95;7.63;;;3.90;99.90;;;;;;5085773;28;20020;-69
2021/01/22 06:31:41;;;;;;;16.08;8.57;;;3.90;99.90;;;;;;5090195;28;20115;-70
2021/01/22 06:34:09;;;;;;;20.77;7.28;;;3.80;99.90;;;;;;5089901;28;20034;-69
2021/01/22 06:36:35;;;;;;;18.95;9.30;;;3.80;99.90;;;;;;5061247;28;20043;-69
2021/01/22 06:39:03;;;;;;;16.33;8.90;;;3.80;99.90;;;;;;5089893;28;20461;-70
2021/01/22 06:41:29;;;;;;;19.35;8.18;;;3.80;99.90;;;;;;5088881;28;20032;-70
2021/01/22 06:44:00;;;;;;;13.60;7.30;;;3.80;99.90;;;;;;5091118;28;20024;-71
2021/01/22 06:46:28;;;;;;;26.27;9.07;;;3.90;99.90;;;;;;5080580;28;20031;-71
2021/01/22 06:48:55;;;;;;;17.23;9.20;;;3.80;99.90;;;;;;5090850;28;20084;-72
2021/01/22 06:51:26;;;;;;;20.35;9.10;;;3.80;99.90;;;;;;5090484;28;20032;-71
2021/01/22 06:54:21;;;;;;;25.80;9.30;;;3.80;99.90;;;;;;5071936;28;20027;-70
2021/01/22 06:56:55;;;;;;;15.48;7.82;;;3.70;99.90;;;;;;5093330;28;20047;-69
2021/01/22 06:59:22;;;;;;;22.38;10.38;;;3.80;99.90;;;;;;5086023;28;20021;-72
2021/01/22 07:01:51;;;;;;;19.75;9.48;;;3.70;99.90;;;;;;5082130;28;20097;-70
2021/01/22 07:04:35;;;;;;;26.67;10.60;;;3.70;99.90;;;;;;5091021;28;20028;-71
2021/01/22 07:07:09;;;;;;;32.30;9.88;;;3.70;99.90;;;;;;5091820;28;20017;-70
2021/01/22 07:09:41;;;;;;;26.38;10.45;;;3.70;99.90;;;;;;5090769;28;20038;-71
2021/01/22 07:12:07;;;;;;;26.98;11.27;;;3.70;99.90;;;;;;5090171;28;20139;-69
2021/01/22 07:14:37;;;;;;;24.10;10.90;;;3.70;99.90;;;;;;5091656;28;20119;-70
2021/01/22 07:17:28;;;;;;;26.33;11.40;;;3.70;99.90;;;;;;5091971;28;20103;-70
2021/01/22 07:20:04;;;;;;;22.85;11.90;;;3.70;99.90;;;;;;5085974;28;20032;-70
2021/01/22 07:22:31;;;;;;;23.30;11.50;;;3.70;99.90;;;;;;5088393;28;20016;-69
2021/01/22 07:24:59;;;;;;;24.48;12.93;;;3.70;99.90;;;;;;5072706;28;20012;-72
2021/01/22 07:27:43;;;;;;;30.58;12.77;;;3.60;99.90;;;;;;5089548;28;20024;-70
2021/01/22 07:30:11;;;;;;;21.63;12.40;;;3.60;99.90;;;;;;5072781;28;20028;-69
2021/01/22 07:32:37;;;;;;;28.63;13.52;;;3.60;99.90;;;;;;5072872;28;20044;-69
2021/01/22 07:35:07;;;;;;;25.10;12.88;;;3.60;99.90;;;;;;5080405;28;20059;-70
2021/01/22 07:37:38;;;;;;;18.15;10.80;;;3.60;99.90;;;;;;5091565;28;20035;-72
2021/01/22 07:40:08;;;;;;;19.88;11.38;;;3.50;99.90;;;;;;5090147;28;20034;-71
2021/01/22 07:42:34;;;;;;;28.75;11.02;;;3.60;99.90;;;;;;5056611;28;20540;-71
2021/01/22 07:45:15;;;;;;;21.40;10.15;;;3.60;99.90;;;;;;5088690;28;20020;-71
2021/01/22 07:47:42;;;;;;;25.30;12.68;;;3.60;99.90;;;;;;5089214;28;20032;-72
2021/01/22 07:50:11;;;;;;;19.48;11.48;;;3.60;99.90;;;;;;5089494;28;20040;-71
2021/01/22 07:52:47;;;;;;;21.40;10.90;;;3.60;99.90;;;;;;5090636;28;20107;-70
2021/01/22 07:55:23;;;;;;;20.35;11.23;;;3.60;99.90;;;;;;5088672;28;20020;-70
2021/01/22 07:58:03;;;;;;;23.60;12.02;;;3.60;99.90;;;;;;5072996;28;20111;-68
2021/01/22 08:00:40;;;;;;;22.92;10.27;;;3.60;99.90;;;;;;5088149;28;20054;-70
2021/01/22 08:03:07;;;;;;;19.33;9.80;;;3.60;99.90;;;;;;5076138;28;20043;-69
2021/01/22 08:05:34;;;;;;;25.60;11.50;;;3.60;99.90;;;;;;5087609;28;20020;-70
2021/01/22 08:08:01;;;;;;;23.75;10.55;;;3.50;99.90;;;;;;5086375;28;20029;-70
2021/01/22 08:10:28;;;;;;;22.25;10.10;;;3.50;99.90;;;;;;5087214;28;20066;-71
2021/01/22 08:12:56;;;;;;;22.67;10.57;;;3.60;99.90;;;;;;5090233;28;20032;-69
2021/01/22 08:15:25;;;;;;;25.45;10.15;;;3.60;99.90;;;;;;5072033;28;20032;-71
2021/01/22 08:17:52;;;;;;;17.15;9.70;;;3.60;99.90;;;;;;5071678;28;20059;-73
2021/01/22 08:20:19;;;;;;;19.27;9.55;;;3.60;99.90;;;;;;5088579;28;20024;-70
2021/01/22 08:22:57;;;;;;;18.33;10.30;;;3.70;99.90;;;;;;5089076;28;20388;-70
2021/01/22 08:25:59;;;;;;;21.73;10.18;;;3.70;99.90;;;;;;5090786;28;20024;-70
2021/01/22 08:28:28;;;;;;;22.48;10.73;;;3.70;99.90;;;;;;5075799;28;20356;-71
2021/01/22 08:30:54;;;;;;;20.30;10.90;;;3.70;99.90;;;;;;5089487;28;20035;-72
2021/01/22 08:33:26;;;;;;;21.98;11.90;;;3.70;99.90;;;;;;5083377;28;20040;-70
2021/01/22 08:35:51;;;;;;;25.77;11.02;;;3.70;99.90;;;;;;5104037;28;20026;-68
2021/01/22 08:38:17;;;;;;;26.88;12.02;;;3.60;99.90;;;;;;5091876;28;20047;-69
2021/01/22 08:40:46;;;;;;;31.73;11.55;;;3.60;99.90;;;;;;5093997;28;20063;-69
2021/01/22 08:43:12;;;;;;;28.63;10.50;;;3.70;99.90;;;;;;5076953;28;20084;-69
2021/01/22 08:45:39;;;;;;;22.73;10.60;;;3.70;99.90;;;;;;5072916;28;20134;-69
2021/01/22 08:48:06;;;;;;;20.77;9.68;;;3.70;99.90;;;;;;5075296;28;20103;-69
2021/01/22 08:50:33;;;;;;;28.67;10.63;;;3.70;99.90;;;;;;5088914;28;20031;-71
2021/01/22 08:53:10;;;;;;;23.33;10.85;;;3.80;99.90;;;;;;5089939;28;20036;-71
2021/01/22 08:55:37;;;;;;;15.98;10.27;;;3.80;99.90;;;;;;5089778;28;20054;-71
2021/01/22 08:58:04;;;;;;;26.23;11.18;;;3.80;99.90;;;;;;5080229;28;20028;-70
2021/01/22 09:00:30;;;;;;;25.75;10.32;;;3.80;99.90;;;;;;5089825;28;20468;-70
2021/01/22 09:02:56;;;;;;;25.10;9.80;;;3.80;99.90;;;;;;5089215;28;20110;-72
2021/01/22 09:05:22;;;;;;;28.58;10.82;;;3.90;99.90;;;;;;5089434;28;20024;-69
2021/01/22 09:08:12;;;;;;;22.25;10.20;;;4.00;99.90;;;;;;5087792;28;20032;-71
2021/01/22 09:10:42;;;;;;;21.33;9.55;;;3.90;99.90;;;;;;5070256;28;20459;-71
2021/01/22 09:13:12;;;;;;;19.05;10.32;;;4.00;99.90;;;;;;5088930;28;20046;-70
2021/01/22 09:15:37;;;;;;;21.15;10.63;;;4.00;99.90;;;;;;5088522;28;20652;-70
2021/01/22 09:18:17;;;;;;;25.30;10.70;;;4.00;99.90;;;;;;5089170;28;20028;-68
2021/01/22 09:20:44;;;;;;;21.08;11.07;;;4.00;99.90;;;;;;5089326;28;20103;-71
2021/01/22 09:23:11;;;;;;;26.92;11.45;;;4.00;99.90;;;;;;5070523;28;20362;-71
2021/01/22 09:25:36;;;;;;;23.25;10.65;;;4.00;99.90;;;;;;5088497;28;20022;-70
2021/01/22 09:28:02;;;;;;;19.30;8.90;;;4.00;99.90;;;;;;5089165;28;20031;-70
2021/01/22 09:30:28;;;;;;;27.15;9.55;;;4.00;99.90;;;;;;5088665;28;20062;-70
2021/01/22 09:32:55;;;;;;;18.42;8.43;;;4.00;99.90;;;;;;5088983;28;20027;-71
2021/01/22 09:35:27;;;;;;;22.58;10.23;;;4.10;99.90;;;;;;5089281;28;20470;-69
2021/01/22 09:37:53;;;;;;;21.48;10.18;;;4.10;99.90;;;;;;5088635;28;20031;-70
2021/01/22 09:40:22;;;;;;;22.77;9.85;;;4.00;99.90;;;;;;5089220;28;20027;-69
2021/01/22 09:42:48;;;;;;;24.60;9.73;;;4.10;99.90;;;;;;5087032;28;20024;-69
2021/01/22 09:45:15;;;;;;;20.77;9.95;;;4.10;99.90;;;;;;5088989;28;20088;-69
2021/01/22 09:47:44;;;;;;;29.05;10.13;;;4.20;99.90;;;;;;5069953;28;20047;-70
2021/01/22 09:50:13;;;;;;;22.95;9.07;;;4.10;99.90;;;;;;5086936;28;20161;-69
2021/01/22 09:52:42;;;;;;;19.75;9.60;;;4.10;99.90;;;;;;5069696;28;20040;-70
2021/01/22 09:55:11;;;;;;;15.05;8.55;;;4.10;99.90;;;;;;5070789;28;20142;-71
2021/01/22 09:57:36;;;;;;;21.13;8.75;;;4.20;99.90;;;;;;5088006;28;20054;-69
2021/01/22 10:00:08;;;;;;;21.25;8.68;;;4.20;99.90;;;;;;5060634;28;20051;-71
2021/01/22 10:02:35;;;;;;;17.75;7.63;;;4.20;99.90;;;;;;5074100;28;20073;-70
2021/01/22 10:05:00;;;;;;;14.88;8.52;;;4.30;99.90;;;;;;5088954;28;20016;-70
2021/01/22 10:07:26;;;;;;;19.45;8.70;;;4.30;99.90;;;;;;5086512;28;20024;-71
2021/01/22 10:09:52;;;;;;;14.48;7.75;;;4.40;99.90;;;;;;5070390;28;20030;-68
2021/01/22 10:12:18;;;;;;;17.63;7.95;;;4.40;99.90;;;;;;5086063;28;20378;-70
2021/01/22 10:14:43;;;;;;;22.13;8.98;;;4.40;99.90;;;;;;5088149;28;20121;-69
2021/01/22 10:17:10;;;;;;;25.17;8.82;;;4.50;99.90;;;;;;5088925;28;20028;-69
2021/01/22 10:19:36;;;;;;;18.27;8.10;;;4.50;99.90;;;;;;5076005;28;20028;-70
2021/01/22 10:22:02;;;;;;;27.42;8.55;;;4.50;99.90;;;;;;5057267;28;20039;-69
2021/01/22 10:24:28;;;;;;;18.88;8.35;;;4.60;99.90;;;;;;5081534;28;20027;-71
2021/01/22 10:26:53;;;;;;;11.65;6.40;;;4.70;99.90;;;;;;5081241;28;20020;-68
2021/01/22 10:29:19;;;;;;;24.58;7.70;;;4.70;99.90;;;;;;5086669;28;20012;-67
2021/01/22 10:31:44;;;;;;;24.73;8.07;;;4.80;99.90;;;;;;5088178;28;20032;-68
2021/01/22 10:34:10;;;;;;;19.73;6.57;;;4.90;99.90;;;;;;5083847;28;20028;-66
2021/01/22 10:36:36;;;;;;;23.77;7.43;;;5.10;99.90;;;;;;5069918;28;20093;-71
2021/01/22 10:39:05;;;;;;;14.13;6.47;;;5.20;99.90;;;;;;5086265;28;20036;-68
2021/01/22 10:41:31;;;;;;;19.50;6.88;;;5.20;99.90;;;;;;5069364;28;20469;-69
2021/01/22 10:43:57;;;;;;;20.38;6.40;;;5.30;99.90;;;;;;5087973;28;20430;-68
2021/01/22 10:46:23;;;;;;;17.55;6.05;;;5.40;99.90;;;;;;5083736;28;20016;-70
2021/01/22 10:48:49;;;;;;;18.23;5.65;;;5.50;99.90;;;;;;5060777;28;20050;-70
2021/01/22 10:51:15;;;;;;;18.55;5.90;;;5.60;99.90;;;;;;5084200;28;20445;-70
2021/01/22 10:53:40;;;;;;;13.88;6.00;;;5.80;99.90;;;;;;5087326;28;20025;-68
2021/01/22 10:56:06;;;;;;;13.25;4.78;;;6.10;99.90;;;;;;5088072;28;20016;-69
2021/01/22 10:58:33;;;;;;;13.18;4.75;;;6.30;99.90;;;;;;5087051;28;20029;-68
2021/01/22 11:00:58;;;;;;;18.33;5.15;;;6.40;99.90;;;;;;5073382;28;20028;-69
2021/01/22 11:03:27;;;;;;;12.35;4.35;;;6.70;99.90;;;;;;5091651;28;20425;-69
2021/01/22 11:05:53;;;;;;;16.63;4.55;;;6.60;99.90;;;;;;5072012;28;20024;-70
2021/01/22 11:08:18;;;;;;;17.63;4.32;;;6.40;99.90;;;;;;5090911;28;20473;-69
2021/01/22 11:10:46;;;;;;;10.90;4.65;;;6.40;99.90;;;;;;5077399;28;20028;-68
2021/01/22 11:13:11;;;;;;;15.38;4.43;;;6.20;99.90;;;;;;5091761;28;20096;-69
2021/01/22 11:15:37;;;;;;;18.80;4.63;;;6.10;99.90;;;;;;5090509;28;20024;-68
2021/01/22 11:18:03;;;;;;;15.13;4.30;;;6.10;99.90;;;;;;5091682;28;20366;-68
2021/01/22 11:20:31;;;;;;;16.95;4.13;;;6.00;99.90;;;;;;5091316;28;20046;-70
2021/01/22 11:22:56;;;;;;;18.85;4.22;;;6.10;99.90;;;;;;5091110;28;20016;-68
2021/01/22 11:25:22;;;;;;;15.80;4.53;;;6.10;99.90;;;;;;5090972;28;20098;-71
2021/01/22 11:27:50;;;;;;;11.38;4.60;;;6.20;99.90;;;;;;5091692;28;20051;-67
2021/01/22 11:30:16;;;;;;;13.85;4.15;;;6.20;99.90;;;;;;5079154;28;20020;-68
2021/01/22 11:32:42;;;;;;;12.85;3.92;;;6.40;99.90;;;;;;5087110;28;20040;-70
2021/01/22 11:35:09;;;;;;;16.05;3.63;;;6.60;99.90;;;;;;5078610;28;20035;-68
2021/01/22 11:37:40;;;;;;;8.40;3.75;;;6.70;99.90;;;;;;5077562;28;20063;-67
2021/01/22 11:40:07;;;;;;;13.27;3.97;;;6.80;99.90;;;;;;5076589;28;20484;-69
2021/01/22 11:42:33;;;;;;;16.77;3.90;;;6.80;99.90;;;;;;5073231;28;20024;-67
2021/01/22 11:44:59;;;;;;;13.00;3.42;;;6.70;99.90;;;;;;5076120;28;20484;-68
2021/01/22 11:47:24;;;;;;;14.27;3.80;;;6.80;99.90;;;;;;5089893;28;20059;-68
2021/01/22 11:49:50;;;;;;;13.48;2.97;;;6.90;99.90;;;;;;5090270;28;20186;-69
2021/01/22 11:52:16;;;;;;;12.57;3.75;;;6.90;99.90;;;;;;5090785;28;20440;-69
2021/01/22 11:54:44;;;;;;;11.30;2.60;;;7.00;99.90;;;;;;5089274;28;20031;-68
2021/01/22 11:57:09;;;;;;;15.52;3.50;;;7.00;99.90;;;;;;5090893;28;20028;-69
2021/01/22 11:59:35;;;;;;;13.18;3.22;;;7.10;99.90;;;;;;5084987;28;20021;-68
2021/01/22 12:02:01;;;;;;;21.83;3.63;;;7.10;99.90;;;;;;5086192;28;20021;-70
2021/01/22 12:04:27;;;;;;;8.65;2.35;;;7.30;99.90;;;;;;5089733;28;20025;-67
2021/01/22 12:06:53;;;;;;;12.77;3.50;;;7.40;99.90;;;;;;5090786;28;20385;-69
2021/01/22 12:09:18;;;;;;;11.23;3.35;;;7.70;99.90;;;;;;5089993;28;20020;-69
2021/01/22 12:11:44;;;;;;;11.30;3.33;;;7.80;99.90;;;;;;5088450;28;20034;-69
2021/01/22 12:14:10;;;;;;;14.55;3.20;;;7.70;99.90;;;;;;5060436;28;20080;-70
2021/01/22 12:16:35;;;;;;;13.73;3.85;;;7.80;99.90;;;;;;5069688;28;20013;-69
2021/01/22 12:19:02;;;;;;;7.80;3.10;;;7.80;99.90;;;;;;5070702;28;20437;-69
2021/01/22 12:21:30;;;;;;;16.83;3.35;;;7.80;99.90;;;;;;5069445;28;20016;-68
2021/01/22 12:23:56;;;;;;;13.90;3.35;;;8.00;99.90;;;;;;5070310;28;20477;-70
2021/01/22 12:26:21;;;;;;;8.40;2.72;;;8.10;99.90;;;;;;5070027;28;20115;-70
2021/01/22 12:28:50;;;;;;;12.25;2.58;;;8.00;99.90;;;;;;5070278;28;20074;-68
2021/01/22 12:31:16;;;;;;;12.25;3.05;;;8.10;99.90;;;;;;5051962;28;20024;-71
2021/01/22 12:33:50;;;;;;;11.07;2.92;;;8.00;99.90;;;;;;5056361;28;20489;-70
2021/01/22 12:36:15;;;;;;;8.00;2.38;;;8.10;99.90;;;;;;5051663;28;20056;-70
2021/01/22 12:38:41;;;;;;;16.20;3.55;;;8.10;99.90;;;;;;5054745;28;20031;-71
2021/01/22 12:41:07;;;;;;;13.70;2.60;;;8.00;99.90;;;;;;5069482;28;20020;-71
2021/01/22 12:43:33;;;;;;;12.63;2.40;;;7.60;99.90;;;;;;5069250;28;20227;-68
2021/01/22 12:46:02;;;;;;;13.07;1.85;;;7.70;99.90;;;;;;5036630;28;20056;-70
2021/01/22 12:48:28;;;;;;;12.48;2.80;;;7.90;99.90;;;;;;5069122;28;20024;-68
2021/01/22 12:50:53;;;;;;;14.65;2.22;;;8.20;99.90;;;;;;5050614;28;20071;-69
2021/01/22 12:53:19;;;;;;;7.03;2.38;;;8.20;99.90;;;;;;5068958;28;20120;-67